sensor_id;sensor_type;location;lat;lon;timestamp;pressure;altitude;pressure_sealevel;temperature;humidity
59831;BME280;45711;50.108;13.712;2023-03-01T04:05:18;98834.00;;;-6.35;85.89
59831;BME280;45711;50.108;13.712;2023-03-01T04:07:54;98832.28;;;-6.44;85.68
59831;BME280;45711;50.108;13.712;2023-03-01T04:10:35;98835.25;;;-6.56;86.48
59831;BME280;45711;50.108;13.712;2023-03-01T04:13:02;98830.94;;;-6.48;87.17
59831;BME280;45711;50.108;13.712;2023-03-01T04:15:40;98841.72;;;-6.43;86.81
59831;BME280;45711;50.108;13.712;2023-03-01T04:18:12;98837.09;;;-6.49;86.44
59831;BME280;45711;50.108;13.712;2023-03-01T04:20:43;98841.00;;;-6.53;86.26
59831;BME280;45711;50.108;13.712;2023-03-01T04:23:22;98830.56;;;-6.53;86.56
59831;BME280;45711;50.108;13.712;2023-03-01T04:25:58;98835.91;;;-6.54;86.70
59831;BME280;45711;50.108;13.712;2023-03-01T04:28:35;98831.19;;;-6.69;86.45
59831;BME280;45711;50.108;13.712;2023-03-01T04:31:12;98829.25;;;-6.67;85.67
59831;BME280;45711;50.108;13.712;2023-03-01T04:34:20;98827.31;;;-6.82;86.87
59831;BME280;45711;50.108;13.712;2023-03-01T04:39:48;98835.59;;;-6.69;87.14
59831;BME280;45711;50.108;13.712;2023-03-01T04:45:00;98834.25;;;-6.73;86.96
59831;BME280;45711;50.108;13.712;2023-03-01T04:45:29;98835.59;;;-6.69;86.26
59831;BME280;45711;50.108;13.712;2023-03-01T04:48:11;98844.75;;;-6.65;86.82
59831;BME280;45711;50.108;13.712;2023-03-01T04:53:40;98835.59;;;-6.69;86.27
59831;BME280;45711;50.108;13.712;2023-03-01T04:56:17;98833.13;;;-6.71;86.68
59831;BME280;45711;50.108;13.712;2023-03-01T04:59:04;98835.19;;;-6.47;86.91
59831;BME280;45711;50.108;13.712;2023-03-01T05:01:33;98840.56;;;-6.76;85.99
59831;BME280;45711;50.108;13.712;2023-03-01T05:04:11;98833.19;;;-6.53;86.58
59831;BME280;45711;50.108;13.712;2023-03-01T05:06:48;98842.75;;;-6.36;84.15
59831;BME280;45711;50.108;13.712;2023-03-01T05:09:23;98850.19;;;-6.59;85.26
59831;BME280;45711;50.108;13.712;2023-03-01T05:12:01;98844.25;;;-6.51;85.37
59831;BME280;45711;50.108;13.712;2023-03-01T05:14:27;98851.66;;;-6.74;85.40
59831;BME280;45711;50.108;13.712;2023-03-01T05:16:57;98846.56;;;-6.75;85.90
59831;BME280;45711;50.108;13.712;2023-03-01T05:19:31;98857.41;;;-6.80;86.75
59831;BME280;45711;50.108;13.712;2023-03-01T05:22:15;98848.44;;;-6.68;86.81
59831;BME280;45711;50.108;13.712;2023-03-01T05:28:13;98844.50;;;-6.72;86.81
59831;BME280;45711;50.108;13.712;2023-03-01T05:30:51;98829.66;;;-6.89;86.45
59831;BME280;45711;50.108;13.712;2023-03-01T05:33:25;98834.78;;;-6.70;86.81
59831;BME280;45711;50.108;13.712;2023-03-01T05:36:22;98839.19;;;-6.80;86.34
59831;BME280;45711;50.108;13.712;2023-03-01T05:38:54;98828.94;;;-6.81;86.25
59831;BME280;45711;50.108;13.712;2023-03-01T05:41:37;98831.94;;;-6.76;87.05
59831;BME280;45711;50.108;13.712;2023-03-01T05:47:56;98836.00;;;-6.46;86.92
59831;BME280;45711;50.108;13.712;2023-03-01T05:50:25;98834.13;;;-6.54;86.53
59831;BME280;45711;50.108;13.712;2023-03-01T05:56:11;98834.03;;;-6.62;87.34
59831;BME280;45711;50.108;13.712;2023-03-01T05:58:59;98835.69;;;-6.61;87.20
59831;BME280;45711;50.108;13.712;2023-03-01T06:01:36;98838.28;;;-6.61;87.39
59831;BME280;45711;50.108;13.712;2023-03-01T06:04:33;98839.38;;;-6.64;86.73
59831;BME280;45711;50.108;13.712;2023-03-01T06:07:08;98828.53;;;-6.59;87.94
59831;BME280;45711;50.108;13.712;2023-03-01T06:13:03;98826.28;;;-6.26;86.72
59831;BME280;45711;50.108;13.712;2023-03-01T06:15:28;98834.56;;;-6.23;85.90
59831;BME280;45711;50.108;13.712;2023-03-01T06:28:28;98819.63;;;-6.03;86.18
59831;BME280;45711;50.108;13.712;2023-03-01T06:31:06;98831.47;;;-6.09;86.30
59831;BME280;45711;50.108;13.712;2023-03-01T06:36:56;98828.44;;;-5.52;84.39
59831;BME280;45711;50.108;13.712;2023-03-01T06:40:08;98818.53;;;-5.66;84.67
59831;BME280;45711;50.108;13.712;2023-03-01T06:42:47;98826.94;;;-5.54;85.02
59831;BME280;45711;50.108;13.712;2023-03-01T06:45:26;98827.34;;;-5.41;84.84
59831;BME280;45711;50.108;13.712;2023-03-01T06:48:02;98816.53;;;-5.20;84.03
59831;BME280;45711;50.108;13.712;2023-03-01T06:50:33;98812.88;;;-5.01;83.36
59831;BME280;45711;50.108;13.712;2023-03-01T06:53:02;98814.91;;;-5.21;83.60
59831;BME280;45711;50.108;13.712;2023-03-01T06:55:30;98816.88;;;-5.15;83.49
59831;BME280;45711;50.108;13.712;2023-03-01T06:58:02;98810.59;;;-4.96;84.83
59831;BME280;45711;50.108;13.712;2023-03-01T07:00:37;98821.09;;;-4.80;84.29
59831;BME280;45711;50.108;13.712;2023-03-01T07:03:17;98820.22;;;-4.97;84.22
59831;BME280;45711;50.108;13.712;2023-03-01T07:05:44;98822.69;;;-4.95;84.81
59831;BME280;45711;50.108;13.712;2023-03-01T07:08:13;98829.72;;;-4.88;84.54
59831;BME280;45711;50.108;13.712;2023-03-01T07:13:59;98833.00;;;-3.54;81.59
59831;BME280;45711;50.108;13.712;2023-03-01T07:19:27;98823.72;;;-3.64;82.11
59831;BME280;45711;50.108;13.712;2023-03-01T07:22:14;98832.19;;;-3.70;81.75
59831;BME280;45711;50.108;13.712;2023-03-01T07:27:53;98832.34;;;-3.39;82.13
59831;BME280;45711;50.108;13.712;2023-03-01T07:30:33;98832.41;;;-3.00;80.76
59831;BME280;45711;50.108;13.712;2023-03-01T07:33:02;98839.97;;;-1.89;77.19
59831;BME280;45711;50.108;13.712;2023-03-01T07:38:49;98841.31;;;-0.37;70.38
59831;BME280;45711;50.108;13.712;2023-03-01T07:41:30;98838.63;;;0.21;68.73
59831;BME280;45711;50.108;13.712;2023-03-01T07:44:15;98852.44;;;1.07;66.96
59831;BME280;45711;50.108;13.712;2023-03-01T07:46:49;98842.28;;;1.04;64.54
59831;BME280;45711;50.108;13.712;2023-03-01T07:53:19;98846.91;;;3.04;59.01
59831;BME280;45711;50.108;13.712;2023-03-01T07:56:03;98840.22;;;3.60;56.13
59831;BME280;45711;50.108;13.712;2023-03-01T07:58:52;98844.63;;;4.11;56.92
59831;BME280;45711;50.108;13.712;2023-03-01T08:02:03;98843.13;;;4.96;54.86
59831;BME280;45711;50.108;13.712;2023-03-01T08:07:57;98840.22;;;5.23;53.26
59831;BME280;45711;50.108;13.712;2023-03-01T08:16:45;98847.66;;;5.99;50.54
59831;BME280;45711;50.108;13.712;2023-03-01T08:24:43;98833.09;;;6.55;52.57
59831;BME280;45711;50.108;13.712;2023-03-01T08:26:10;98823.41;;;6.85;51.96
59831;BME280;45711;50.108;13.712;2023-03-01T08:29:58;98823.88;;;6.82;50.01
59831;BME280;45711;50.108;13.712;2023-03-01T15:06:07;98526.47;;;4.67;55.61
59831;BME280;45711;50.108;13.712;2023-03-01T15:08:35;98528.00;;;4.75;52.58
59831;BME280;45711;50.108;13.712;2023-03-01T15:11:04;98525.47;;;4.80;52.31
59831;BME280;45711;50.108;13.712;2023-03-01T15:13:31;98521.69;;;4.88;52.69
59831;BME280;45711;50.108;13.712;2023-03-01T15:16:03;98530.66;;;4.87;53.53
59831;BME280;45711;50.108;13.712;2023-03-01T15:18:29;98532.75;;;4.85;52.42
59831;BME280;45711;50.108;13.712;2023-03-01T15:20:56;98536.16;;;4.73;53.52
59831;BME280;45711;50.108;13.712;2023-03-01T15:23:31;98536.44;;;4.84;54.11
59831;BME280;45711;50.108;13.712;2023-03-01T17:02:48;98517.16;;;2.80;56.84
59831;BME280;45711;50.108;13.712;2023-03-01T17:05:14;98517.88;;;2.62;57.50
59831;BME280;45711;50.108;13.712;2023-03-01T17:07:40;98514.75;;;2.33;58.47
59831;BME280;45711;50.108;13.712;2023-03-01T17:10:07;98513.72;;;2.41;58.63
59831;BME280;45711;50.108;13.712;2023-03-01T17:12:34;98518.59;;;2.37;58.33
59831;BME280;45711;50.108;13.712;2023-03-01T17:48:23;98534.41;;;1.92;60.35
59831;BME280;45711;50.108;13.712;2023-03-01T17:50:53;98536.06;;;1.80;61.86
59831;BME280;45711;50.108;13.712;2023-03-01T17:53:18;98536.06;;;1.80;62.58
59831;BME280;45711;50.108;13.712;2023-03-01T17:55:44;98529.56;;;1.69;61.65
59831;BME280;45711;50.108;13.712;2023-03-01T17:58:12;98528.56;;;1.77;61.72
59831;BME280;45711;50.108;13.712;2023-03-01T18:00:38;98532.22;;;1.69;61.05
59831;BME280;45711;50.108;13.712;2023-03-01T18:03:19;98537.91;;;1.73;62.08
